createdAt,value
2017-12-22T00:01:35.469Z,96423.25
2017-12-22T00:04:03.826Z,96430.16
2017-12-22T00:06:32.183Z,96423.42
2017-12-22T00:09:00.536Z,96419.97
2017-12-22T00:11:28.880Z,96422.05
2017-12-22T00:13:57.270Z,96426.64
2017-12-22T00:16:25.605Z,96424.25
2017-12-22T00:18:53.961Z,96423.26
2017-12-22T00:21:22.307Z,96414.27
2017-12-22T00:23:50.654Z,96419.08
2017-12-22T00:26:19.035Z,96415.49
2017-12-22T00:28:47.378Z,96412.76
2017-12-22T00:31:15.730Z,96417.81
2017-12-22T00:33:44.081Z,96417.52
2017-12-22T00:36:12.417Z,96414.47
2017-12-22T00:38:40.797Z,96414.33
2017-12-22T00:41:09.134Z,96413.49
2017-12-22T00:43:37.510Z,96420.58
2017-12-22T00:46:05.846Z,96411.32
2017-12-22T00:48:34.206Z,96404.35
2017-12-22T00:51:02.549Z,96407.56
2017-12-22T00:53:30.894Z,96412.88
2017-12-22T00:55:59.275Z,96414.99
2017-12-22T00:58:27.665Z,96417.20
2017-12-22T01:00:56.065Z,96417.18
2017-12-22T01:03:24.388Z,96416.44
2017-12-22T01:05:52.739Z,96419.84
2017-12-22T01:08:21.115Z,96418.16
2017-12-22T01:10:49.462Z,96419.19
2017-12-22T01:13:18.874Z,96421.64
2017-12-22T01:15:52.742Z,96424.73
2017-12-22T01:18:26.554Z,96424.34
2017-12-22T01:20:54.908Z,96423.30
2017-12-22T01:23:23.250Z,96423.08
2017-12-22T01:25:51.654Z,96418.13
2017-12-22T01:28:20.020Z,96421.74
2017-12-22T01:30:48.362Z,96410.28
2017-12-22T01:33:16.715Z,96412.03
2017-12-22T01:35:45.059Z,96418.47
2017-12-22T01:38:13.425Z,96420.66
2017-12-22T01:40:41.770Z,96413.61
2017-12-22T01:43:10.117Z,96407.00
2017-12-22T01:45:38.477Z,96407.03
2017-12-22T01:48:06.822Z,96400.42
2017-12-22T01:50:35.206Z,96400.72
2017-12-22T01:53:03.554Z,96400.50
2017-12-22T01:55:31.894Z,96391.47
2017-12-22T01:58:00.242Z,96398.61
2017-12-22T02:00:28.581Z,96410.19
2017-12-22T02:02:56.966Z,96404.98
2017-12-22T02:05:25.319Z,96399.81
2017-12-22T02:07:53.667Z,96399.30
2017-12-22T02:10:22.024Z,96401.06
2017-12-22T02:12:50.384Z,96399.09
2017-12-22T02:15:18.752Z,96398.52
2017-12-22T02:17:47.122Z,96392.16
2017-12-22T02:20:15.469Z,96394.63
2017-12-22T02:22:43.810Z,96387.78
2017-12-22T02:25:12.172Z,96392.55
2017-12-22T02:27:40.566Z,96388.88
2017-12-22T02:30:08.910Z,96386.47
2017-12-22T02:32:37.262Z,96388.70
2017-12-22T02:35:05.613Z,96392.27
2017-12-22T02:37:33.965Z,96387.14
2017-12-22T02:40:02.315Z,96390.27
2017-12-22T02:42:30.658Z,96387.73
2017-12-22T02:44:59.039Z,96392.61
2017-12-22T02:47:27.395Z,96387.81
2017-12-22T02:49:55.751Z,96386.48
2017-12-22T02:52:24.112Z,96394.38
2017-12-22T02:54:52.450Z,96387.41
2017-12-22T02:57:20.839Z,96386.72
2017-12-22T02:59:49.195Z,96388.77
2017-12-22T03:02:17.559Z,96390.74
2017-12-22T03:04:45.906Z,96383.50
2017-12-22T03:07:14.259Z,96384.52
2017-12-22T03:09:42.643Z,96382.25
2017-12-22T03:12:10.990Z,96386.48
2017-12-22T03:14:39.347Z,96383.44
2017-12-22T03:17:07.700Z,96386.65
2017-12-22T03:19:36.046Z,96380.83
2017-12-22T03:22:04.390Z,96376.62
2017-12-22T03:24:32.734Z,96375.48
2017-12-22T03:27:01.087Z,96380.92
2017-12-22T03:29:29.479Z,96364.77
2017-12-22T03:31:57.826Z,96361.61
2017-12-22T03:34:26.169Z,96357.33
2017-12-22T03:36:54.525Z,96362.91
2017-12-22T03:39:22.874Z,96356.80
2017-12-22T03:41:51.222Z,96353.90
2017-12-22T03:44:19.565Z,96336.97
2017-12-22T03:46:47.954Z,96342.33
2017-12-22T03:49:16.305Z,96332.20
2017-12-22T03:51:44.662Z,96337.94
2017-12-22T03:54:13.023Z,96333.63
2017-12-22T03:56:41.377Z,96334.05
2017-12-22T03:59:09.771Z,96338.05
2017-12-22T04:01:38.154Z,96338.01
2017-12-22T04:04:06.507Z,96339.59
2017-12-22T04:06:34.857Z,96335.80
2017-12-22T04:09:03.210Z,96334.53
2017-12-22T04:11:31.553Z,96342.47
2017-12-22T04:13:59.937Z,96336.52
2017-12-22T04:16:28.291Z,96331.48
2017-12-22T04:18:56.642Z,96339.09
2017-12-22T04:21:25.018Z,96337.91
2017-12-22T04:23:53.366Z,96335.42
2017-12-22T04:26:21.710Z,96334.50
2017-12-22T04:28:50.083Z,96334.84
2017-12-22T04:31:18.439Z,96332.97
2017-12-22T04:33:46.811Z,96334.69
2017-12-22T04:36:15.186Z,96335.61
2017-12-22T04:38:43.534Z,96335.69
2017-12-22T04:41:11.881Z,96336.83
2017-12-22T04:43:40.248Z,96330.14
2017-12-22T04:46:08.622Z,96330.77
2017-12-22T04:48:36.962Z,96327.97
2017-12-22T04:51:05.347Z,96337.20
2017-12-22T04:53:33.724Z,96339.17
2017-12-22T04:56:02.078Z,96338.48
2017-12-22T04:58:30.420Z,96342.68
2017-12-22T05:00:58.783Z,96344.58
2017-12-22T05:03:27.161Z,96347.14
2017-12-22T05:05:55.531Z,96345.20
2017-12-22T05:08:23.892Z,96349.70
2017-12-22T05:10:52.238Z,96344.55
2017-12-22T05:13:20.598Z,96346.70
2017-12-22T05:15:48.970Z,96349.86
2017-12-22T05:18:17.311Z,96337.85
2017-12-22T05:20:45.657Z,96341.70
2017-12-22T05:23:14.011Z,96343.31
2017-12-22T05:25:42.355Z,96339.18
2017-12-22T05:28:10.733Z,96335.52
2017-12-22T05:30:39.084Z,96334.70
2017-12-22T05:33:07.421Z,96337.80
2017-12-22T05:35:35.770Z,96327.34
2017-12-22T05:38:04.146Z,96328.27
2017-12-22T05:40:32.537Z,96331.14
2017-12-22T05:43:00.883Z,96332.33
2017-12-22T05:45:29.230Z,96338.16
2017-12-22T05:47:57.575Z,96339.73
2017-12-22T05:50:26.149Z,96338.86
2017-12-22T05:52:54.530Z,96335.40
2017-12-22T05:55:22.879Z,96337.84
2017-12-22T05:57:51.225Z,96336.78
2017-12-22T06:00:19.571Z,96339.39
2017-12-22T06:02:47.918Z,96334.02
2017-12-22T06:05:16.292Z,96338.12
2017-12-22T06:07:44.634Z,96335.93
2017-12-22T06:10:13.000Z,96345.90
2017-12-22T06:12:41.350Z,96344.81
2017-12-22T06:15:09.702Z,96354.58
2017-12-22T06:17:38.314Z,96355.83
2017-12-22T06:20:06.673Z,96357.41
2017-12-22T06:22:35.018Z,96355.56
2017-12-22T06:25:03.357Z,96363.87
2017-12-22T06:27:31.710Z,96363.03
2017-12-22T06:30:00.127Z,96361.62
2017-12-22T06:32:28.473Z,96360.71
2017-12-22T06:34:56.825Z,96361.69
2017-12-22T06:37:25.188Z,96359.71
2017-12-22T06:39:53.538Z,96362.53
2017-12-22T06:42:21.908Z,96367.20
2017-12-22T06:44:50.283Z,96367.44
2017-12-22T06:47:18.635Z,96365.66
2017-12-22T06:49:46.973Z,96366.42
2017-12-22T06:52:15.333Z,96362.55
2017-12-22T06:54:43.682Z,96362.75
2017-12-22T06:57:12.033Z,96366.29
2017-12-22T06:59:40.378Z,96356.08
2017-12-22T07:02:08.727Z,96359.18
2017-12-22T07:04:37.102Z,96355.75
2017-12-22T07:07:05.452Z,96350.87
2017-12-22T07:09:33.807Z,96353.75
2017-12-22T07:12:02.162Z,96361.36
2017-12-22T07:14:30.518Z,96362.60
2017-12-22T07:16:58.906Z,96367.95
2017-12-22T07:19:27.270Z,96364.72
2017-12-22T07:21:55.618Z,96363.47
2017-12-22T07:24:23.962Z,96359.63
2017-12-22T07:26:52.311Z,96359.73
2017-12-22T07:29:20.689Z,96360.80
2017-12-22T07:31:49.041Z,96363.95
2017-12-22T07:34:17.421Z,96361.38
2017-12-22T07:36:45.763Z,96362.28
2017-12-22T07:39:14.121Z,96366.91
2017-12-22T07:41:42.495Z,96366.55
2017-12-22T07:44:10.854Z,96366.02
2017-12-22T07:46:39.210Z,96368.11
2017-12-22T07:49:07.578Z,96367.52
2017-12-22T07:51:35.934Z,96378.24
2017-12-22T07:54:04.314Z,96378.11
2017-12-22T07:56:32.691Z,96387.45
2017-12-22T07:59:01.033Z,96386.22
2017-12-22T08:01:29.374Z,96386.73
2017-12-22T08:03:57.727Z,96389.58
2017-12-22T08:06:26.106Z,96395.48
2017-12-22T08:08:54.460Z,96399.30
2017-12-22T08:11:22.806Z,96405.60
2017-12-22T08:13:51.269Z,96402.81
2017-12-22T08:16:19.664Z,96404.19
2017-12-22T08:18:48.011Z,96410.81
2017-12-22T08:21:16.386Z,96405.13
2017-12-22T08:23:44.730Z,96400.72
2017-12-22T08:26:13.087Z,96397.81
2017-12-22T08:28:41.492Z,96401.63
2017-12-22T08:31:09.838Z,96405.33
2017-12-22T08:33:38.187Z,96395.66
2017-12-22T08:36:06.543Z,96408.11
2017-12-22T08:38:34.890Z,96407.98
2017-12-22T08:41:03.241Z,96422.93
2017-12-22T08:43:31.741Z,96422.64
2017-12-22T08:46:00.139Z,96423.80
2017-12-22T08:48:28.483Z,96428.60
2017-12-22T08:50:56.839Z,96442.09
2017-12-22T08:53:25.210Z,96443.29
2017-12-22T08:55:53.555Z,96444.31
2017-12-22T08:58:21.943Z,96442.50
2017-12-22T09:00:50.305Z,96437.55
2017-12-22T09:03:18.653Z,96448.30
2017-12-22T09:05:47.004Z,96449.78
2017-12-22T09:08:15.380Z,96447.97
2017-12-22T09:10:43.736Z,96447.98
2017-12-22T09:13:12.088Z,96446.81
2017-12-22T09:15:40.442Z,96453.41
2017-12-22T09:18:08.798Z,96466.77
2017-12-22T09:20:37.239Z,96466.19
2017-12-22T09:23:05.592Z,96457.59
2017-12-22T09:25:33.974Z,96460.38
2017-12-22T09:28:02.335Z,96453.19
2017-12-22T09:30:30.695Z,96463.25
2017-12-22T09:32:59.042Z,96459.48
2017-12-22T09:35:27.412Z,96468.30
2017-12-22T09:37:55.809Z,96459.70
2017-12-22T09:40:24.160Z,96464.81
2017-12-22T09:42:52.564Z,96455.09
2017-12-22T09:45:20.909Z,96460.80
2017-12-22T09:47:49.288Z,96466.36
2017-12-22T09:50:17.646Z,96465.28
2017-12-22T09:52:46.004Z,96473.42
2017-12-22T09:55:14.442Z,96480.97
2017-12-22T09:57:42.754Z,96490.27
2017-12-22T10:00:11.101Z,96485.63
2017-12-22T10:02:39.459Z,96486.05
2017-12-22T10:05:07.809Z,96492.38
2017-12-22T10:07:36.206Z,96484.26
2017-12-22T10:10:04.560Z,96476.57
2017-12-22T10:12:32.918Z,96472.47
2017-12-22T10:15:01.287Z,96466.72
2017-12-22T10:17:29.634Z,96460.70
2017-12-22T10:19:58.050Z,96456.56
2017-12-22T10:22:26.556Z,96458.27
2017-12-22T10:24:55.079Z,96454.40
2017-12-22T10:27:23.583Z,96441.93
2017-12-22T10:29:52.221Z,96444.44
2017-12-22T10:32:20.650Z,96449.63
2017-12-22T10:34:49.182Z,96447.23
2017-12-22T10:37:17.586Z,96445.12
2017-12-22T10:39:45.971Z,96435.48
2017-12-22T10:42:14.309Z,96439.55
2017-12-22T10:44:42.663Z,96437.66
2017-12-22T10:47:11.020Z,96425.16
2017-12-22T10:49:39.374Z,96428.56
2017-12-22T10:52:07.753Z,96433.58
2017-12-22T10:54:36.111Z,96442.31
2017-12-22T10:57:04.467Z,96440.22
2017-12-22T10:59:32.827Z,96433.86
2017-12-22T11:02:01.184Z,96444.83
2017-12-22T11:04:29.612Z,96445.41
2017-12-22T11:06:57.964Z,96438.95
2017-12-22T11:09:26.311Z,96448.56
2017-12-22T11:11:54.672Z,96444.44
2017-12-22T11:14:23.009Z,96454.52
2017-12-22T11:16:51.415Z,96463.10
2017-12-22T11:19:19.769Z,96460.52
2017-12-22T11:21:48.113Z,96452.33
2017-12-22T11:24:16.490Z,96456.19
2017-12-22T11:26:45.644Z,96463.18
2017-12-22T11:29:14.038Z,96458.89
2017-12-22T11:31:42.401Z,96452.48
2017-12-22T11:34:10.771Z,96454.29
2017-12-22T11:36:39.126Z,96457.80
2017-12-22T11:39:07.479Z,96449.36
2017-12-22T11:41:35.857Z,96445.83
2017-12-22T11:44:04.193Z,96454.22
2017-12-22T11:46:32.541Z,96459.73
2017-12-22T11:49:00.880Z,96458.50
2017-12-22T11:51:29.229Z,96447.48
2017-12-22T11:53:57.607Z,96445.34
2017-12-22T11:56:25.978Z,96459.05
2017-12-22T11:58:54.463Z,96462.47
2017-12-22T12:01:22.823Z,96464.52
2017-12-22T12:03:51.198Z,96466.00
2017-12-22T12:06:19.550Z,96459.28
2017-12-22T12:08:47.930Z,96460.83
2017-12-22T12:11:16.315Z,96469.74
2017-12-22T12:13:44.676Z,96474.27
2017-12-22T12:16:13.095Z,96471.33
2017-12-22T12:18:41.436Z,96470.25
2017-12-22T12:21:09.785Z,96467.23
2017-12-22T12:23:38.164Z,96466.73
2017-12-22T12:26:06.548Z,96473.13
2017-12-22T12:28:35.036Z,96474.56
2017-12-22T12:31:03.388Z,96467.50
2017-12-22T12:33:31.760Z,96465.23
2017-12-22T12:36:00.101Z,96461.55
2017-12-22T12:38:28.489Z,96466.20
2017-12-22T12:40:56.861Z,96467.83
2017-12-22T12:43:25.212Z,96461.96
2017-12-22T12:45:53.557Z,96450.99
2017-12-22T12:48:22.003Z,96450.38
2017-12-22T12:50:50.429Z,96440.47
2017-12-22T12:53:18.853Z,96444.22
2017-12-22T12:55:47.209Z,96439.60
2017-12-22T12:58:15.577Z,96442.72
2017-12-22T13:00:43.959Z,96441.08
2017-12-22T13:03:12.368Z,96440.64
2017-12-22T13:05:40.711Z,96437.82
2017-12-22T13:08:09.114Z,96441.59
2017-12-22T13:10:37.467Z,96438.98
2017-12-22T13:13:05.810Z,96434.95
2017-12-22T13:15:34.160Z,96437.70
2017-12-22T13:18:02.514Z,96437.66
2017-12-22T13:20:30.902Z,96432.63
2017-12-22T13:23:00.115Z,96437.86
2017-12-22T13:25:28.474Z,96427.47
2017-12-22T13:27:56.822Z,96427.86
2017-12-22T13:30:25.169Z,96422.97
2017-12-22T13:32:53.562Z,96429.16
2017-12-22T13:35:21.922Z,96425.39
2017-12-22T13:37:50.383Z,96431.70
2017-12-22T13:40:18.732Z,96433.11
2017-12-22T13:42:47.083Z,96435.47
2017-12-22T13:45:15.427Z,96428.46
2017-12-22T13:47:43.834Z,96437.55
2017-12-22T13:50:12.260Z,96437.52
2017-12-22T13:52:40.602Z,96445.73
2017-12-22T13:55:08.999Z,96445.02
2017-12-22T13:57:37.349Z,96449.41
2017-12-22T14:00:05.710Z,96452.20
2017-12-22T14:02:34.932Z,96452.87
2017-12-22T14:05:03.282Z,96448.94
2017-12-22T14:07:31.666Z,96448.02
2017-12-22T14:10:00.049Z,96443.89
2017-12-22T14:12:28.378Z,96438.82
2017-12-22T14:14:56.725Z,96444.48
2017-12-22T14:17:25.074Z,96443.77
2017-12-22T14:19:53.466Z,96448.42
2017-12-22T14:22:21.818Z,96458.45
2017-12-22T14:24:50.169Z,96454.31
2017-12-22T14:27:18.532Z,96455.90
2017-12-22T14:29:46.862Z,96457.34
2017-12-22T14:32:15.238Z,96457.02
2017-12-22T14:34:43.593Z,96451.17
2017-12-22T14:37:11.943Z,96453.92
2017-12-22T14:39:40.381Z,96447.84
2017-12-22T14:42:08.720Z,96443.09
2017-12-22T14:44:37.115Z,96438.95
2017-12-22T14:47:05.468Z,96435.69
2017-12-22T14:49:33.815Z,96438.54
2017-12-22T14:52:02.173Z,96429.39
2017-12-22T14:54:30.517Z,96433.02
2017-12-22T14:56:58.910Z,96434.09
2017-12-22T14:59:27.262Z,96435.95
2017-12-22T15:01:55.625Z,96445.05
2017-12-22T15:04:23.995Z,96446.12
2017-12-22T15:06:52.358Z,96450.70
2017-12-22T15:09:20.708Z,96445.45
2017-12-22T15:11:49.128Z,96440.16
2017-12-22T15:14:17.484Z,96443.14
2017-12-22T15:16:45.835Z,96447.13
2017-12-22T15:19:14.190Z,96453.25
2017-12-22T15:21:42.566Z,96457.53
2017-12-22T15:24:10.909Z,96450.66
2017-12-22T15:26:39.254Z,96457.96
2017-12-22T15:29:07.621Z,96459.19
2017-12-22T15:31:36.104Z,96462.63
2017-12-22T15:34:04.518Z,96461.92
2017-12-22T15:36:32.874Z,96457.77
2017-12-22T15:39:01.236Z,96457.98
2017-12-22T15:41:29.605Z,96465.49
2017-12-22T15:43:57.957Z,96473.42
2017-12-22T15:46:26.310Z,96474.19
2017-12-22T15:48:54.714Z,96477.89
2017-12-22T15:51:23.057Z,96481.59
2017-12-22T15:53:51.413Z,96477.12
2017-12-22T15:56:19.772Z,96484.41
2017-12-22T15:58:48.117Z,96488.44
2017-12-22T16:01:16.467Z,96488.05
2017-12-22T16:03:44.815Z,96487.70
2017-12-22T16:06:13.193Z,96488.04
2017-12-22T16:08:41.555Z,96494.34
2017-12-22T16:11:09.907Z,96490.66
2017-12-22T16:13:38.294Z,96495.95
2017-12-22T16:16:06.634Z,96501.73
2017-12-22T16:18:35.002Z,96500.66
2017-12-22T16:21:03.354Z,96505.83
2017-12-22T16:23:31.717Z,96513.91
2017-12-22T16:26:00.066Z,96511.28
2017-12-22T16:28:28.466Z,96508.84
2017-12-22T16:30:56.810Z,96506.63
2017-12-22T16:33:25.159Z,96506.20
2017-12-22T16:35:53.520Z,96509.20
2017-12-22T16:38:21.870Z,96515.69
2017-12-22T16:40:50.239Z,96511.77
2017-12-22T16:43:18.594Z,96514.55
2017-12-22T16:45:46.935Z,96511.88
2017-12-22T16:48:15.286Z,96516.23
2017-12-22T16:50:43.634Z,96520.23
2017-12-22T16:53:12.023Z,96520.75
2017-12-22T16:55:40.387Z,96527.75
2017-12-22T16:58:08.759Z,96529.94
2017-12-22T17:00:37.111Z,96524.48
2017-12-22T17:03:05.458Z,96533.77
2017-12-22T17:05:33.817Z,96530.17
2017-12-22T17:08:02.162Z,96532.17
2017-12-22T17:10:30.519Z,96541.03
2017-12-22T17:12:58.900Z,96540.93
2017-12-22T17:15:27.248Z,96531.46
2017-12-22T17:17:55.594Z,96534.13
2017-12-22T17:20:24.001Z,96549.73
2017-12-22T17:22:52.357Z,96546.72
2017-12-22T17:25:20.715Z,96551.45
2017-12-22T17:27:49.087Z,96547.68
2017-12-22T17:30:17.434Z,96547.47
2017-12-22T17:32:45.782Z,96542.38
2017-12-22T17:35:14.128Z,96552.66
2017-12-22T17:37:42.476Z,96549.86
2017-12-22T17:40:10.846Z,96543.93
2017-12-22T17:42:39.223Z,96547.05
2017-12-22T17:45:07.575Z,96543.97
2017-12-22T17:47:35.909Z,96548.31
2017-12-22T17:50:04.258Z,96540.11
2017-12-22T17:52:32.643Z,96543.90
2017-12-22T17:55:00.992Z,96538.73
2017-12-22T17:57:29.340Z,96544.02
2017-12-22T17:59:57.685Z,96555.70
2017-12-22T18:02:26.034Z,96553.92
2017-12-22T18:04:54.378Z,96551.80
2017-12-22T18:07:22.455Z,96560.81
2017-12-22T18:09:50.515Z,96560.25
2017-12-22T18:12:18.576Z,96561.61
2017-12-22T18:14:46.678Z,96559.84
2017-12-22T18:17:14.797Z,96562.09
2017-12-22T18:19:42.875Z,96559.30
2017-12-22T18:22:10.938Z,96559.63
2017-12-22T18:24:39.316Z,96556.58
2017-12-22T18:27:07.658Z,96565.65
2017-12-22T18:29:36.012Z,96556.14
2017-12-22T18:32:04.394Z,96558.20
2017-12-22T18:34:32.943Z,96564.13
2017-12-22T18:37:01.286Z,96567.70
2017-12-22T18:39:29.639Z,96564.00
2017-12-22T18:41:58.132Z,96559.89
2017-12-22T18:44:26.470Z,96560.42
2017-12-22T18:46:54.874Z,96565.36
2017-12-22T18:49:23.225Z,96558.42
2017-12-22T18:51:51.586Z,96550.61
2017-12-22T18:54:19.965Z,96561.64
2017-12-22T18:56:48.310Z,96556.63
2017-12-22T18:59:16.691Z,96558.54
2017-12-22T19:01:45.098Z,96554.03
2017-12-22T19:04:13.446Z,96563.87
2017-12-22T19:06:41.815Z,96571.81
2017-12-22T19:09:10.165Z,96569.38
2017-12-22T19:11:38.574Z,96572.72
2017-12-22T19:14:06.923Z,96580.06
2017-12-22T19:16:35.282Z,96583.11
2017-12-22T19:19:03.633Z,96580.92
2017-12-22T19:21:31.983Z,96578.06
2017-12-22T19:24:00.363Z,96572.59
2017-12-22T19:26:28.719Z,96564.91
2017-12-22T19:28:57.069Z,96572.69
2017-12-22T19:31:25.423Z,96563.41
2017-12-22T19:33:53.772Z,96565.20
2017-12-22T19:36:22.125Z,96562.57
2017-12-22T19:38:50.479Z,96557.53
2017-12-22T19:41:18.827Z,96557.06
2017-12-22T19:43:47.182Z,96558.74
2017-12-22T19:46:15.575Z,96570.30
2017-12-22T19:48:43.917Z,96576.60
2017-12-22T19:51:12.266Z,96573.58
2017-12-22T19:53:40.804Z,96573.66
2017-12-22T19:56:09.208Z,96576.55
2017-12-22T19:58:37.598Z,96570.75
2017-12-22T20:01:05.955Z,96571.87
2017-12-22T20:03:34.306Z,96586.98
2017-12-22T20:06:02.666Z,96582.92
2017-12-22T20:08:31.014Z,96587.91
2017-12-22T20:10:59.410Z,96585.59
2017-12-22T20:13:27.758Z,96588.31
2017-12-22T20:15:56.108Z,96591.22
2017-12-22T20:18:25.885Z,96585.91
2017-12-22T20:20:54.286Z,96586.00
2017-12-22T20:23:22.663Z,96582.84
2017-12-22T20:25:51.006Z,96587.09
2017-12-22T20:28:19.411Z,96577.84
2017-12-22T20:30:47.874Z,96589.33
2017-12-22T20:33:16.353Z,96582.84
2017-12-22T20:35:44.971Z,96573.68
2017-12-22T20:38:13.431Z,96577.15
2017-12-22T20:40:41.792Z,96583.32
2017-12-22T20:43:11.852Z,96593.37
2017-12-22T20:45:40.311Z,96592.88
2017-12-22T20:48:08.691Z,96594.11
2017-12-22T20:50:37.047Z,96606.45
2017-12-22T20:53:05.398Z,96595.69
2017-12-22T20:55:33.790Z,96594.93
2017-12-22T20:58:02.214Z,96585.27
2017-12-22T21:00:30.574Z,96586.11
2017-12-22T21:02:58.948Z,96590.77
2017-12-22T21:05:27.313Z,96597.25
2017-12-22T21:07:55.714Z,96585.09
2017-12-22T21:10:24.121Z,96584.06
2017-12-22T21:12:52.548Z,96597.77
2017-12-22T21:15:21.063Z,96590.80
2017-12-22T21:17:49.562Z,96598.15
2017-12-22T21:20:18.066Z,96601.94
2017-12-22T21:22:46.741Z,96599.34
2017-12-22T21:25:17.326Z,96594.21
2017-12-22T21:27:45.961Z,96602.18
2017-12-22T21:30:15.384Z,96584.99
2017-12-22T21:32:44.170Z,96586.67
2017-12-22T21:35:12.565Z,96584.02
2017-12-22T21:37:41.097Z,96586.80
2017-12-22T21:40:09.533Z,96579.65
2017-12-22T21:42:37.982Z,96575.45
2017-12-22T21:45:06.484Z,96574.55
2017-12-22T21:47:34.906Z,96582.05
2017-12-22T21:50:03.296Z,96587.73
2017-12-22T21:52:31.653Z,96587.34
2017-12-22T21:55:00.007Z,96586.59
2017-12-22T21:57:28.400Z,96584.58
2017-12-22T21:59:56.764Z,96579.42
2017-12-22T22:02:25.159Z,96587.09
2017-12-22T22:04:53.751Z,96583.50
2017-12-22T22:07:22.219Z,96583.96
2017-12-22T22:09:50.696Z,96589.61
2017-12-22T22:12:19.232Z,96585.86
2017-12-22T22:14:48.034Z,96593.09
2017-12-22T22:17:16.653Z,96592.27
2017-12-22T22:19:45.153Z,96598.36
2017-12-22T22:22:13.623Z,96605.02
2017-12-22T22:24:42.075Z,96596.91
2017-12-22T22:27:10.809Z,96595.95
2017-12-22T22:29:39.235Z,96605.07
2017-12-22T22:32:07.603Z,96604.30
2017-12-22T22:34:35.965Z,96608.70
2017-12-22T22:37:04.315Z,96603.16
2017-12-22T22:39:32.708Z,96607.44
2017-12-22T22:42:01.069Z,96611.89
2017-12-22T22:44:29.473Z,96609.18
2017-12-22T22:46:57.838Z,96606.42
2017-12-22T22:49:26.204Z,96600.00
2017-12-22T22:51:55.505Z,96597.44
2017-12-22T22:54:23.929Z,96593.41
2017-12-22T22:56:52.398Z,96580.94
2017-12-22T22:59:20.847Z,96583.10
2017-12-22T23:01:50.235Z,96577.71
2017-12-22T23:04:18.686Z,96585.55
2017-12-22T23:06:47.136Z,96589.78
2017-12-22T23:09:16.307Z,96595.42
2017-12-22T23:11:45.950Z,96593.15
2017-12-22T23:14:15.805Z,96601.42
2017-12-22T23:16:46.418Z,96602.78
2017-12-22T23:19:16.439Z,96593.28
2017-12-22T23:21:45.572Z,96594.27
2017-12-22T23:24:14.944Z,96591.16
2017-12-22T23:26:44.734Z,96579.52
2017-12-22T23:29:14.573Z,96571.60
2017-12-22T23:31:55.055Z,96570.56
2017-12-22T23:34:23.928Z,96576.55
2017-12-22T23:36:52.605Z,96574.70
2017-12-22T23:39:21.140Z,96578.41
2017-12-22T23:41:50.051Z,96573.78
2017-12-22T23:44:18.774Z,96577.82
2017-12-22T23:46:47.468Z,96576.64
2017-12-22T23:49:16.140Z,96572.58
2017-12-22T23:51:44.807Z,96579.18
2017-12-22T23:54:13.562Z,96565.00
2017-12-22T23:56:42.131Z,96574.16
2017-12-22T23:59:10.798Z,96576.70
